sensor_id;sensor_type;location;lat;lon;timestamp;pressure;altitude;pressure_sealevel;temperature;humidity
26775;BME280;14362;51.902;7.626;2023-07-08T00:00:32;101218.34;;;20.44;93.52
26775;BME280;14362;51.902;7.626;2023-07-08T00:04:35;101217.03;;;20.38;93.67
26775;BME280;14362;51.902;7.626;2023-07-08T00:08:36;101214.97;;;20.35;95.34
26775;BME280;14362;51.902;7.626;2023-07-08T00:12:37;101210.00;;;20.29;95.21
26775;BME280;14362;51.902;7.626;2023-07-08T00:16:39;101211.06;;;20.21;97.90
26775;BME280;14362;51.902;7.626;2023-07-08T00:20:44;101204.94;;;20.19;95.84
26775;BME280;14362;51.902;7.626;2023-07-08T00:24:47;101187.91;;;20.15;97.52
26775;BME280;14362;51.902;7.626;2023-07-08T00:28:49;101184.06;;;20.04;99.60
26775;BME280;14362;51.902;7.626;2023-07-08T00:32:50;101180.25;;;19.97;100.00
26775;BME280;14362;51.902;7.626;2023-07-08T00:36:55;101186.66;;;19.94;100.00
26775;BME280;14362;51.902;7.626;2023-07-08T00:40:59;101178.28;;;19.97;100.00
26775;BME280;14362;51.902;7.626;2023-07-08T00:45:15;101180.63;;;19.95;100.00
26775;BME280;14362;51.902;7.626;2023-07-08T00:49:35;101187.34;;;19.87;100.00
26775;BME280;14362;51.902;7.626;2023-07-08T00:53:39;101187.66;;;19.82;100.00
26775;BME280;14362;51.902;7.626;2023-07-08T00:57:43;101188.44;;;19.79;100.00
26775;BME280;14362;51.902;7.626;2023-07-08T01:01:46;101176.16;;;19.72;100.00
26775;BME280;14362;51.902;7.626;2023-07-08T01:05:50;101169.63;;;19.68;100.00
26775;BME280;14362;51.902;7.626;2023-07-08T01:09:56;101166.34;;;19.66;100.00
26775;BME280;14362;51.902;7.626;2023-07-08T01:14:00;101165.38;;;19.58;100.00
26775;BME280;14362;51.902;7.626;2023-07-08T01:18:03;101161.72;;;19.58;100.00
26775;BME280;14362;51.902;7.626;2023-07-08T01:22:07;101169.41;;;19.58;100.00
26775;BME280;14362;51.902;7.626;2023-07-08T01:26:09;101160.81;;;19.54;100.00
26775;BME280;14362;51.902;7.626;2023-07-08T01:30:11;101158.16;;;19.42;100.00
26775;BME280;14362;51.902;7.626;2023-07-08T01:34:13;101151.09;;;19.33;100.00
26775;BME280;14362;51.902;7.626;2023-07-08T01:38:17;101149.47;;;19.32;100.00
26775;BME280;14362;51.902;7.626;2023-07-08T01:42:19;101140.88;;;19.25;100.00
26775;BME280;14362;51.902;7.626;2023-07-08T01:46:23;101141.59;;;19.22;100.00
26775;BME280;14362;51.902;7.626;2023-07-08T01:50:26;101136.75;;;19.22;100.00
26775;BME280;14362;51.902;7.626;2023-07-08T01:54:29;101136.75;;;19.22;100.00
26775;BME280;14362;51.902;7.626;2023-07-08T01:58:31;101133.88;;;19.19;100.00
26775;BME280;14362;51.902;7.626;2023-07-08T02:02:32;101123.31;;;19.16;100.00
26775;BME280;14362;51.902;7.626;2023-07-08T02:06:34;101118.75;;;19.11;100.00
26775;BME280;14362;51.902;7.626;2023-07-08T02:10:38;101125.13;;;19.08;100.00
26775;BME280;14362;51.902;7.626;2023-07-08T02:14:40;101118.22;;;19.06;100.00
26775;BME280;14362;51.902;7.626;2023-07-08T02:18:41;101119.69;;;19.00;100.00
26775;BME280;14362;51.902;7.626;2023-07-08T02:22:43;101110.34;;;18.96;100.00
26775;BME280;14362;51.902;7.626;2023-07-08T02:26:46;101109.44;;;18.92;100.00
26775;BME280;14362;51.902;7.626;2023-07-08T02:30:47;101114.56;;;18.86;100.00
26775;BME280;14362;51.902;7.626;2023-07-08T02:34:49;101107.72;;;18.87;100.00
26775;BME280;14362;51.902;7.626;2023-07-08T02:38:52;101117.00;;;18.88;100.00
26775;BME280;14362;51.902;7.626;2023-07-08T02:42:55;101107.78;;;18.91;100.00
26775;BME280;14362;51.902;7.626;2023-07-08T02:46:56;101108.47;;;18.84;100.00
26775;BME280;14362;51.902;7.626;2023-07-08T02:51:01;101102.88;;;18.88;100.00
26775;BME280;14362;51.902;7.626;2023-07-08T02:55:04;101104.44;;;18.85;100.00
26775;BME280;14362;51.902;7.626;2023-07-08T02:59:06;101105.91;;;18.79;100.00
26775;BME280;14362;51.902;7.626;2023-07-08T03:03:08;101094.28;;;18.81;100.00
26775;BME280;14362;51.902;7.626;2023-07-08T03:07:10;101091.44;;;18.81;100.00
26775;BME280;14362;51.902;7.626;2023-07-08T03:11:12;101094.09;;;18.74;100.00
26775;BME280;14362;51.902;7.626;2023-07-08T03:15:15;101098.56;;;18.75;100.00
26775;BME280;14362;51.902;7.626;2023-07-08T03:19:16;101090.03;;;18.71;100.00
26775;BME280;14362;51.902;7.626;2023-07-08T03:23:18;101097.22;;;18.69;100.00
26775;BME280;14362;51.902;7.626;2023-07-08T03:27:20;101097.53;;;18.64;100.00
26775;BME280;14362;51.902;7.626;2023-07-08T03:31:22;101091.88;;;18.64;100.00
26775;BME280;14362;51.902;7.626;2023-07-08T03:35:24;101100.81;;;18.66;100.00
26775;BME280;14362;51.902;7.626;2023-07-08T03:39:25;101103.19;;;18.64;100.00
26775;BME280;14362;51.902;7.626;2023-07-08T03:43:27;101105.63;;;18.65;100.00
26775;BME280;14362;51.902;7.626;2023-07-08T03:47:29;101101.31;;;18.71;100.00
26775;BME280;14362;51.902;7.626;2023-07-08T03:51:33;101099.22;;;18.68;100.00
26775;BME280;14362;51.902;7.626;2023-07-08T03:55:36;101094.03;;;18.70;100.00
26775;BME280;14362;51.902;7.626;2023-07-08T03:59:37;101097.16;;;18.65;100.00
26775;BME280;14362;51.902;7.626;2023-07-08T04:03:40;101097.53;;;18.64;100.00
26775;BME280;14362;51.902;7.626;2023-07-08T04:07:41;101095.44;;;18.61;100.00
26775;BME280;14362;51.902;7.626;2023-07-08T04:11:43;101097.06;;;18.62;100.00
26775;BME280;14362;51.902;7.626;2023-07-08T04:15:44;101096.78;;;18.67;100.00
26775;BME280;14362;51.902;7.626;2023-07-08T04:19:48;101096.03;;;18.70;100.00
26775;BME280;14362;51.902;7.626;2023-07-08T04:23:49;101106.53;;;18.69;100.00
26775;BME280;14362;51.902;7.626;2023-07-08T04:27:51;101114.72;;;18.74;100.00
26775;BME280;14362;51.902;7.626;2023-07-08T04:31:52;101109.50;;;18.76;100.00
26775;BME280;14362;51.902;7.626;2023-07-08T04:35:55;101111.28;;;18.84;100.00
26775;BME280;14362;51.902;7.626;2023-07-08T04:39:57;101112.91;;;18.85;100.00
26775;BME280;14362;51.902;7.626;2023-07-08T04:43:59;101119.53;;;18.93;100.00
26775;BME280;14362;51.902;7.626;2023-07-08T04:48:02;101122.81;;;18.95;100.00
26775;BME280;14362;51.902;7.626;2023-07-08T04:52:10;101122.16;;;19.01;100.00
26775;BME280;14362;51.902;7.626;2023-07-08T04:56:11;101123.56;;;19.11;100.00
26775;BME280;14362;51.902;7.626;2023-07-08T05:00:15;101128.72;;;19.24;100.00
26775;BME280;14362;51.902;7.626;2023-07-08T05:04:18;101124.94;;;19.36;100.00
26775;BME280;14362;51.902;7.626;2023-07-08T05:08:21;101118.78;;;19.53;100.00
26775;BME280;14362;51.902;7.626;2023-07-08T05:12:23;101131.47;;;19.81;100.00
26775;BME280;14362;51.902;7.626;2023-07-08T05:16:24;101121.13;;;19.92;98.71
26775;BME280;14362;51.902;7.626;2023-07-08T05:20:28;101120.78;;;19.93;98.26
26775;BME280;14362;51.902;7.626;2023-07-08T05:24:32;101115.50;;;20.14;97.87
26775;BME280;14362;51.902;7.626;2023-07-08T05:28:34;101108.38;;;20.50;91.95
26775;BME280;14362;51.902;7.626;2023-07-08T05:32:35;101107.75;;;21.51;82.03
26775;BME280;14362;51.902;7.626;2023-07-08T05:36:37;101099.88;;;22.14;74.36
26775;BME280;14362;51.902;7.626;2023-07-08T05:40:40;101103.53;;;22.65;70.24
26775;BME280;14362;51.902;7.626;2023-07-08T05:44:41;101090.88;;;23.26;63.59
26775;BME280;14362;51.902;7.626;2023-07-08T05:48:43;101097.53;;;23.89;60.68
26775;BME280;14362;51.902;7.626;2023-07-08T05:52:44;101089.81;;;24.21;58.24
26775;BME280;14362;51.902;7.626;2023-07-08T05:56:47;101090.66;;;24.53;56.96
26775;BME280;14362;51.902;7.626;2023-07-08T06:00:54;101093.41;;;24.81;57.08
26775;BME280;14362;51.902;7.626;2023-07-08T06:04:56;101089.94;;;25.42;53.01
26775;BME280;14362;51.902;7.626;2023-07-08T06:09:02;101095.16;;;25.61;51.65
26775;BME280;14362;51.902;7.626;2023-07-08T06:13:05;101090.38;;;25.37;52.07
26775;BME280;14362;51.902;7.626;2023-07-08T06:17:06;101095.00;;;25.03;54.70
26775;BME280;14362;51.902;7.626;2023-07-08T06:21:08;101108.56;;;24.61;56.25
26775;BME280;14362;51.902;7.626;2023-07-08T06:25:09;101094.69;;;24.28;57.41
26775;BME280;14362;51.902;7.626;2023-07-08T06:29:12;101101.59;;;24.16;58.54
26775;BME280;14362;51.902;7.626;2023-07-08T06:33:14;101119.09;;;24.08;60.13
26775;BME280;14362;51.902;7.626;2023-07-08T06:37:16;101105.31;;;24.13;60.36
26775;BME280;14362;51.902;7.626;2023-07-08T06:41:17;101110.56;;;23.97;59.80
26775;BME280;14362;51.902;7.626;2023-07-08T06:45:20;101109.34;;;24.16;61.01
26775;BME280;14362;51.902;7.626;2023-07-08T06:49:21;101107.31;;;24.34;60.45
26775;BME280;14362;51.902;7.626;2023-07-08T06:53:23;101104.09;;;24.49;62.98
26775;BME280;14362;51.902;7.626;2023-07-08T06:57:24;101105.69;;;24.54;59.16
26775;BME280;14362;51.902;7.626;2023-07-08T07:01:27;101098.78;;;24.62;62.15
26775;BME280;14362;51.902;7.626;2023-07-08T07:05:28;101109.34;;;24.68;60.55
26775;BME280;14362;51.902;7.626;2023-07-08T07:09:30;101100.75;;;24.89;63.85
26775;BME280;14362;51.902;7.626;2023-07-08T07:13:31;101097.06;;;24.95;62.95
26775;BME280;14362;51.902;7.626;2023-07-08T07:17:35;101096.66;;;24.90;70.25
26775;BME280;14362;51.902;7.626;2023-07-08T07:21:36;101092.22;;;23.67;100.00
26775;BME280;14362;51.902;7.626;2023-07-08T07:25:38;101089.13;;;23.01;100.00
26775;BME280;14362;51.902;7.626;2023-07-08T07:29:42;101102.91;;;22.99;100.00
26775;BME280;14362;51.902;7.626;2023-07-08T07:33:45;101103.09;;;23.34;100.00
26775;BME280;14362;51.902;7.626;2023-07-08T07:37:48;101107.59;;;23.45;98.20
26775;BME280;14362;51.902;7.626;2023-07-08T07:41:49;101102.81;;;23.81;83.51
26775;BME280;14362;51.902;7.626;2023-07-08T07:45:51;101105.28;;;23.92;83.66
26775;BME280;14362;51.902;7.626;2023-07-08T07:49:54;101101.63;;;24.34;73.51
26775;BME280;14362;51.902;7.626;2023-07-08T07:53:55;101092.69;;;24.49;72.51
26775;BME280;14362;51.902;7.626;2023-07-08T07:57:57;101103.25;;;24.66;68.36
26775;BME280;14362;51.902;7.626;2023-07-08T08:01:58;101107.22;;;24.93;62.33
26775;BME280;14362;51.902;7.626;2023-07-08T08:06:01;101101.50;;;25.03;65.75
26775;BME280;14362;51.902;7.626;2023-07-08T08:10:03;101099.47;;;25.14;68.50
26775;BME280;14362;51.902;7.626;2023-07-08T08:14:04;101098.94;;;25.37;64.60
26775;BME280;14362;51.902;7.626;2023-07-08T08:18:06;101099.63;;;25.62;62.57
26775;BME280;14362;51.902;7.626;2023-07-08T08:22:09;101101.91;;;25.88;59.91
26775;BME280;14362;51.902;7.626;2023-07-08T08:26:10;101109.19;;;25.99;60.50
26775;BME280;14362;51.902;7.626;2023-07-08T08:30:12;101101.31;;;26.13;58.88
26775;BME280;14362;51.902;7.626;2023-07-08T08:34:13;101114.66;;;26.30;55.50
26775;BME280;14362;51.902;7.626;2023-07-08T08:38:16;101112.91;;;26.47;58.31
26775;BME280;14362;51.902;7.626;2023-07-08T08:42:26;101106.25;;;26.60;55.08
26775;BME280;14362;51.902;7.626;2023-07-08T08:46:36;101112.66;;;26.71;60.36
26775;BME280;14362;51.902;7.626;2023-07-08T08:50:43;101115.44;;;26.34;72.15
26775;BME280;14362;51.902;7.626;2023-07-08T08:54:47;101108.94;;;25.73;68.67
26775;BME280;14362;51.902;7.626;2023-07-08T08:58:56;101099.56;;;25.69;68.26
26775;BME280;14362;51.902;7.626;2023-07-08T09:03:02;101105.16;;;25.93;62.39
26775;BME280;14362;51.902;7.626;2023-07-08T09:07:08;101105.34;;;26.19;60.25
26775;BME280;14362;51.902;7.626;2023-07-08T09:11:25;101104.34;;;26.43;60.71
26775;BME280;14362;51.902;7.626;2023-07-08T09:15:28;101101.22;;;26.71;55.80
26775;BME280;14362;51.902;7.626;2023-07-08T09:19:33;101100.22;;;26.88;56.94
26775;BME280;14362;51.902;7.626;2023-07-08T09:23:37;101100.47;;;27.04;55.03
26775;BME280;14362;51.902;7.626;2023-07-08T09:27:40;101093.22;;;27.26;52.50
26775;BME280;14362;51.902;7.626;2023-07-08T09:31:41;101104.88;;;27.42;51.75
26775;BME280;14362;51.902;7.626;2023-07-08T09:35:46;101107.06;;;27.61;47.92
26775;BME280;14362;51.902;7.626;2023-07-08T09:39:48;101095.66;;;27.87;49.21
26775;BME280;14362;51.902;7.626;2023-07-08T09:44:02;101091.75;;;28.01;48.38
26775;BME280;14362;51.902;7.626;2023-07-08T09:48:04;101087.59;;;28.05;48.16
26775;BME280;14362;51.902;7.626;2023-07-08T09:52:16;101101.19;;;28.24;47.72
26775;BME280;14362;51.902;7.626;2023-07-08T09:56:18;101105.59;;;28.32;46.56
26775;BME280;14362;51.902;7.626;2023-07-08T10:00:29;101105.34;;;28.46;45.06
26775;BME280;14362;51.902;7.626;2023-07-08T10:04:34;101105.91;;;28.60;46.25
26775;BME280;14362;51.902;7.626;2023-07-08T10:08:40;101103.84;;;28.84;43.91
26775;BME280;14362;51.902;7.626;2023-07-08T10:12:51;101100.03;;;28.90;44.15
26775;BME280;14362;51.902;7.626;2023-07-08T10:16:56;101089.00;;;29.08;43.73
26775;BME280;14362;51.902;7.626;2023-07-08T10:21:03;101092.97;;;29.14;43.25
26775;BME280;14362;51.902;7.626;2023-07-08T10:25:16;101083.34;;;29.24;43.14
26775;BME280;14362;51.902;7.626;2023-07-08T10:29:26;101086.31;;;29.40;43.60
26775;BME280;14362;51.902;7.626;2023-07-08T10:33:51;101088.25;;;29.62;43.13
26775;BME280;14362;51.902;7.626;2023-07-08T10:38:07;101088.16;;;29.66;41.52
26775;BME280;14362;51.902;7.626;2023-07-08T10:42:13;101085.00;;;29.96;42.86
26775;BME280;14362;51.902;7.626;2023-07-08T10:46:24;101084.06;;;30.02;42.98
26775;BME280;14362;51.902;7.626;2023-07-08T10:50:41;101082.78;;;30.03;40.62
26775;BME280;14362;51.902;7.626;2023-07-08T10:54:55;101085.13;;;30.08;41.41
26775;BME280;14362;51.902;7.626;2023-07-08T10:59:22;101084.41;;;30.20;40.81
26775;BME280;14362;51.902;7.626;2023-07-08T11:03:52;101072.47;;;30.37;39.97
26775;BME280;14362;51.902;7.626;2023-07-08T11:08:03;101072.25;;;30.44;38.59
26775;BME280;14362;51.902;7.626;2023-07-08T11:12:17;101072.38;;;30.57;39.92
26775;BME280;14362;51.902;7.626;2023-07-08T11:16:25;101071.25;;;30.67;38.53
26775;BME280;14362;51.902;7.626;2023-07-08T11:20:36;101063.09;;;30.94;39.41
26775;BME280;14362;51.902;7.626;2023-07-08T11:24:43;101054.00;;;30.95;37.54
26775;BME280;14362;51.902;7.626;2023-07-08T11:28:47;101066.06;;;31.06;37.10
26775;BME280;14362;51.902;7.626;2023-07-08T11:32:54;101047.16;;;31.05;36.63
26775;BME280;14362;51.902;7.626;2023-07-08T11:36:59;101057.78;;;31.08;37.13
26775;BME280;14362;51.902;7.626;2023-07-08T11:41:03;101046.78;;;31.03;37.62
26775;BME280;14362;51.902;7.626;2023-07-08T11:45:08;101044.09;;;31.12;35.33
26775;BME280;14362;51.902;7.626;2023-07-08T11:49:16;101035.13;;;31.35;35.18
26775;BME280;14362;51.902;7.626;2023-07-08T11:53:32;101034.00;;;31.45;34.42
26775;BME280;14362;51.902;7.626;2023-07-08T11:57:40;101028.44;;;31.38;34.62
26775;BME280;14362;51.902;7.626;2023-07-08T12:01:48;101036.16;;;31.29;34.16
26775;BME280;14362;51.902;7.626;2023-07-08T12:05:52;101014.59;;;31.33;33.69
26775;BME280;14362;51.902;7.626;2023-07-08T12:09:58;101005.91;;;31.49;32.15
26775;BME280;14362;51.902;7.626;2023-07-08T12:14:03;101005.22;;;31.82;33.02
26775;BME280;14362;51.902;7.626;2023-07-08T12:18:13;101007.31;;;31.69;34.66
26775;BME280;14362;51.902;7.626;2023-07-08T12:22:16;100996.69;;;31.79;35.12
26775;BME280;14362;51.902;7.626;2023-07-08T12:26:19;101006.38;;;31.85;33.52
26775;BME280;14362;51.902;7.626;2023-07-08T12:30:22;101009.25;;;31.97;33.57
26775;BME280;14362;51.902;7.626;2023-07-08T12:34:25;101004.97;;;32.02;33.70
26775;BME280;14362;51.902;7.626;2023-07-08T12:38:32;100999.09;;;32.18;33.66
26775;BME280;14362;51.902;7.626;2023-07-08T12:42:35;100994.13;;;32.06;34.44
26775;BME280;14362;51.902;7.626;2023-07-08T12:46:37;100997.31;;;32.33;32.97
26775;BME280;14362;51.902;7.626;2023-07-08T12:50:40;101005.41;;;32.25;34.33
26775;BME280;14362;51.902;7.626;2023-07-08T12:54:41;101004.47;;;32.28;33.51
26775;BME280;14362;51.902;7.626;2023-07-08T12:58:45;101004.13;;;32.26;31.42
26775;BME280;14362;51.902;7.626;2023-07-08T13:02:55;101000.63;;;32.44;31.86
26775;BME280;14362;51.902;7.626;2023-07-08T13:06:59;101004.84;;;32.51;31.59
26775;BME280;14362;51.902;7.626;2023-07-08T13:11:02;100998.59;;;32.65;33.07
26775;BME280;14362;51.902;7.626;2023-07-08T13:15:08;100998.59;;;32.65;31.47
26775;BME280;14362;51.902;7.626;2023-07-08T13:19:13;100999.41;;;32.66;32.87
26775;BME280;14362;51.902;7.626;2023-07-08T13:23:15;100997.22;;;32.70;32.69
26775;BME280;14362;51.902;7.626;2023-07-08T13:27:21;100979.59;;;32.77;31.54
26775;BME280;14362;51.902;7.626;2023-07-08T13:31:24;100993.94;;;32.80;30.97
26775;BME280;14362;51.902;7.626;2023-07-08T13:35:33;101003.56;;;32.86;30.15
26775;BME280;14362;51.902;7.626;2023-07-08T13:39:36;100992.97;;;33.05;31.09
26775;BME280;14362;51.902;7.626;2023-07-08T13:43:39;100995.34;;;33.19;29.71
26775;BME280;14362;51.902;7.626;2023-07-08T13:47:41;101001.13;;;33.19;29.34
26775;BME280;14362;51.902;7.626;2023-07-08T13:51:44;100993.66;;;33.09;30.29
26775;BME280;14362;51.902;7.626;2023-07-08T13:55:45;100984.97;;;33.09;29.99
26775;BME280;14362;51.902;7.626;2023-07-08T13:59:47;100996.19;;;33.28;30.80
26775;BME280;14362;51.902;7.626;2023-07-08T14:03:49;100993.97;;;33.32;31.06
26775;BME280;14362;51.902;7.626;2023-07-08T14:07:53;100996.19;;;33.58;30.36
26775;BME280;14362;51.902;7.626;2023-07-08T14:11:55;100997.91;;;33.68;30.65
26775;BME280;14362;51.902;7.626;2023-07-08T14:15:56;101000.03;;;33.77;28.93
26775;BME280;14362;51.902;7.626;2023-07-08T14:19:58;101001.13;;;33.49;29.10
26775;BME280;14362;51.902;7.626;2023-07-08T14:24:00;100999.38;;;33.52;28.66
26775;BME280;14362;51.902;7.626;2023-07-08T14:28:02;101004.03;;;33.49;30.00
26775;BME280;14362;51.902;7.626;2023-07-08T14:32:11;101000.53;;;33.54;30.13
26775;BME280;14362;51.902;7.626;2023-07-08T14:36:13;101004.75;;;33.62;29.16
26775;BME280;14362;51.902;7.626;2023-07-08T14:40:22;100996.13;;;33.71;30.08
26775;BME280;14362;51.902;7.626;2023-07-08T14:44:26;100998.41;;;33.85;28.87
26775;BME280;14362;51.902;7.626;2023-07-08T14:48:28;101000.66;;;33.81;27.74
26775;BME280;14362;51.902;7.626;2023-07-08T14:52:29;100994.66;;;33.66;29.15
26775;BME280;14362;51.902;7.626;2023-07-08T14:56:33;100997.56;;;33.66;28.77
26775;BME280;14362;51.902;7.626;2023-07-08T15:00:34;100999.47;;;33.69;29.42
26775;BME280;14362;51.902;7.626;2023-07-08T15:04:38;100998.41;;;33.76;28.48
26775;BME280;14362;51.902;7.626;2023-07-08T15:08:39;101002.31;;;34.00;28.79
26775;BME280;14362;51.902;7.626;2023-07-08T15:12:42;101000.59;;;34.02;28.63
26775;BME280;14362;51.902;7.626;2023-07-08T15:16:44;101000.53;;;33.84;28.42
26775;BME280;14362;51.902;7.626;2023-07-08T15:20:46;100992.47;;;33.88;29.20
26775;BME280;14362;51.902;7.626;2023-07-08T15:24:47;101000.06;;;33.95;27.78
26775;BME280;14362;51.902;7.626;2023-07-08T15:28:51;101002.00;;;33.98;27.64
26775;BME280;14362;51.902;7.626;2023-07-08T15:32:53;100997.53;;;33.97;28.50
26775;BME280;14362;51.902;7.626;2023-07-08T15:36:55;100994.59;;;33.88;28.69
26775;BME280;14362;51.902;7.626;2023-07-08T15:40:56;100983.28;;;33.72;28.06
26775;BME280;14362;51.902;7.626;2023-07-08T15:44:59;100978.72;;;33.62;28.54
26775;BME280;14362;51.902;7.626;2023-07-08T15:49:04;100976.03;;;33.67;29.37
26775;BME280;14362;51.902;7.626;2023-07-08T15:53:13;100979.06;;;33.64;29.95
26775;BME280;14362;51.902;7.626;2023-07-08T15:57:15;100979.06;;;33.64;29.80
26775;BME280;14362;51.902;7.626;2023-07-08T16:01:20;100984.13;;;33.51;29.07
26775;BME280;14362;51.902;7.626;2023-07-08T16:05:22;100985.88;;;33.49;29.30
26775;BME280;14362;51.902;7.626;2023-07-08T16:09:24;100983.13;;;33.45;30.56
26775;BME280;14362;51.902;7.626;2023-07-08T16:13:28;100974.69;;;33.29;30.81
26775;BME280;14362;51.902;7.626;2023-07-08T16:17:33;100977.25;;;33.27;30.98
26775;BME280;14362;51.902;7.626;2023-07-08T16:21:37;100978.16;;;33.15;30.64
26775;BME280;14362;51.902;7.626;2023-07-08T16:25:41;100981.72;;;33.19;30.63
26775;BME280;14362;51.902;7.626;2023-07-08T16:29:43;100978.34;;;33.21;30.62
26775;BME280;14362;51.902;7.626;2023-07-08T16:33:49;100974.44;;;33.15;30.90
26775;BME280;14362;51.902;7.626;2023-07-08T16:37:52;100974.66;;;33.20;30.76
26775;BME280;14362;51.902;7.626;2023-07-08T16:41:54;100977.81;;;33.13;30.90
26775;BME280;14362;51.902;7.626;2023-07-08T16:45:57;100978.00;;;32.97;31.10
26775;BME280;14362;51.902;7.626;2023-07-08T16:50:00;100975.38;;;32.90;31.63
26775;BME280;14362;51.902;7.626;2023-07-08T16:54:09;100975.31;;;32.81;31.92
26775;BME280;14362;51.902;7.626;2023-07-08T16:58:12;100972.44;;;32.81;32.20
26775;BME280;14362;51.902;7.626;2023-07-08T17:02:15;100981.09;;;32.81;31.67
26775;BME280;14362;51.902;7.626;2023-07-08T17:06:18;100971.34;;;32.66;31.77
26775;BME280;14362;51.902;7.626;2023-07-08T17:10:20;100972.94;;;32.67;31.88
26775;BME280;14362;51.902;7.626;2023-07-08T17:14:21;100969.13;;;32.70;31.40
26775;BME280;14362;51.902;7.626;2023-07-08T17:18:23;100967.50;;;32.69;32.25
26775;BME280;14362;51.902;7.626;2023-07-08T17:22:26;100960.94;;;32.69;31.72
26775;BME280;14362;51.902;7.626;2023-07-08T17:26:28;100953.06;;;32.69;31.87
26775;BME280;14362;51.902;7.626;2023-07-08T17:30:29;100957.00;;;32.42;32.68
26775;BME280;14362;51.902;7.626;2023-07-08T17:34:31;100964.56;;;32.27;32.60
26775;BME280;14362;51.902;7.626;2023-07-08T17:38:43;100951.50;;;32.10;33.24
26775;BME280;14362;51.902;7.626;2023-07-08T17:42:45;100953.50;;;32.00;33.17
26775;BME280;14362;51.902;7.626;2023-07-08T17:46:47;100950.41;;;31.82;34.29
26775;BME280;14362;51.902;7.626;2023-07-08T17:50:48;100948.72;;;31.72;35.35
26775;BME280;14362;51.902;7.626;2023-07-08T17:54:51;100953.00;;;31.68;34.54
26775;BME280;14362;51.902;7.626;2023-07-08T17:58:53;100948.81;;;31.56;34.34
26775;BME280;14362;51.902;7.626;2023-07-08T18:02:56;100944.19;;;31.46;34.41
26775;BME280;14362;51.902;7.626;2023-07-08T18:06:57;100948.59;;;31.51;34.56
26775;BME280;14362;51.902;7.626;2023-07-08T18:11:01;100955.50;;;31.53;35.37
26775;BME280;14362;51.902;7.626;2023-07-08T18:15:05;100955.88;;;31.68;35.58
26775;BME280;14362;51.902;7.626;2023-07-08T18:19:11;100954.13;;;31.70;35.18
26775;BME280;14362;51.902;7.626;2023-07-08T18:23:16;100964.03;;;31.44;35.36
26775;BME280;14362;51.902;7.626;2023-07-08T18:27:19;100961.94;;;31.33;35.70
26775;BME280;14362;51.902;7.626;2023-07-08T18:31:24;100970.13;;;31.09;35.96
26775;BME280;14362;51.902;7.626;2023-07-08T18:35:28;100971.38;;;31.08;35.86
26775;BME280;14362;51.902;7.626;2023-07-08T18:39:30;100977.97;;;30.93;36.16
26775;BME280;14362;51.902;7.626;2023-07-08T18:43:32;100977.22;;;30.76;36.27
26775;BME280;14362;51.902;7.626;2023-07-08T18:47:34;100977.88;;;30.55;37.67
26775;BME280;14362;51.902;7.626;2023-07-08T18:51:38;100989.91;;;30.50;37.60
26775;BME280;14362;51.902;7.626;2023-07-08T18:55:41;100985.53;;;30.30;38.06
26775;BME280;14362;51.902;7.626;2023-07-08T18:59:45;100996.25;;;30.14;38.91
26775;BME280;14362;51.902;7.626;2023-07-08T19:03:46;100995.28;;;30.04;39.48
26775;BME280;14362;51.902;7.626;2023-07-08T19:07:48;100994.00;;;29.89;40.04
26775;BME280;14362;51.902;7.626;2023-07-08T19:11:51;100992.66;;;29.78;40.62
26775;BME280;14362;51.902;7.626;2023-07-08T19:15:54;100992.97;;;29.64;40.96
26775;BME280;14362;51.902;7.626;2023-07-08T19:19:55;100997.03;;;29.50;41.48
26775;BME280;14362;51.902;7.626;2023-07-08T19:23:57;101001.41;;;29.35;41.88
26775;BME280;14362;51.902;7.626;2023-07-08T19:27:58;100997.47;;;29.29;41.39
26775;BME280;14362;51.902;7.626;2023-07-08T19:32:01;101010.88;;;29.17;41.89
26775;BME280;14362;51.902;7.626;2023-07-08T19:36:03;101013.31;;;28.99;42.44
26775;BME280;14362;51.902;7.626;2023-07-08T19:40:10;101016.09;;;28.86;42.88
26775;BME280;14362;51.902;7.626;2023-07-08T19:44:14;101014.31;;;28.69;43.42
26775;BME280;14362;51.902;7.626;2023-07-08T19:48:19;101031.41;;;28.57;43.72
26775;BME280;14362;51.902;7.626;2023-07-08T19:52:21;101026.81;;;28.40;44.05
26775;BME280;14362;51.902;7.626;2023-07-08T19:56:23;101028.28;;;28.25;44.33
26775;BME280;14362;51.902;7.626;2023-07-08T20:00:28;101041.16;;;28.13;44.65
26775;BME280;14362;51.902;7.626;2023-07-08T20:04:31;101044.28;;;28.00;45.26
26775;BME280;14362;51.902;7.626;2023-07-08T20:08:36;101048.06;;;27.93;45.47
26775;BME280;14362;51.902;7.626;2023-07-08T20:12:38;101049.50;;;27.82;46.01
26775;BME280;14362;51.902;7.626;2023-07-08T20:16:40;101054.53;;;27.74;46.69
26775;BME280;14362;51.902;7.626;2023-07-08T20:20:44;101053.47;;;27.61;47.35
26775;BME280;14362;51.902;7.626;2023-07-08T20:24:45;101061.94;;;27.42;47.88
26775;BME280;14362;51.902;7.626;2023-07-08T20:28:47;101062.41;;;27.37;47.93
26775;BME280;14362;51.902;7.626;2023-07-08T20:32:49;101058.50;;;27.24;48.98
26775;BME280;14362;51.902;7.626;2023-07-08T20:36:52;101062.44;;;27.03;49.13
26775;BME280;14362;51.902;7.626;2023-07-08T20:40:53;101063.78;;;26.92;49.98
26775;BME280;14362;51.902;7.626;2023-07-08T20:44:55;101074.06;;;26.86;50.32
26775;BME280;14362;51.902;7.626;2023-07-08T20:48:58;101063.56;;;26.76;50.57
26775;BME280;14362;51.902;7.626;2023-07-08T20:53:03;101064.41;;;26.73;52.54
26775;BME280;14362;51.902;7.626;2023-07-08T20:57:10;101075.16;;;26.62;57.18
26775;BME280;14362;51.902;7.626;2023-07-08T21:01:12;101079.00;;;26.49;58.04
26775;BME280;14362;51.902;7.626;2023-07-08T21:05:13;101087.59;;;26.42;65.22
26775;BME280;14362;51.902;7.626;2023-07-08T21:09:19;101092.53;;;26.38;58.39